createdAt,value
2019-05-21T00:01:03.073Z,15.97
2019-05-21T00:03:33.045Z,15.93
2019-05-21T00:06:04.015Z,16.00
2019-05-21T00:08:34.172Z,16.07
2019-05-21T00:11:04.174Z,16.04
2019-05-21T00:13:34.675Z,16.03
2019-05-21T00:16:04.751Z,16.01
2019-05-21T00:18:34.995Z,16.03
2019-05-21T00:21:06.289Z,16.03
2019-05-21T00:23:36.643Z,16.06
2019-05-21T00:26:07.467Z,16.01
2019-05-21T00:28:40.975Z,15.99
2019-05-21T00:31:46.122Z,15.98
2019-05-21T00:34:51.409Z,15.99
2019-05-21T00:37:56.967Z,15.86
2019-05-21T00:41:02.319Z,15.89
2019-05-21T00:43:50.505Z,15.79
2019-05-21T00:46:20.613Z,15.82
2019-05-21T00:48:51.013Z,15.88
2019-05-21T00:51:25.562Z,15.96
2019-05-21T00:53:55.532Z,16.01
2019-05-21T00:56:28.652Z,16.05
2019-05-21T00:58:58.561Z,16.10
2019-05-21T01:01:30.036Z,16.11
2019-05-21T01:04:00.061Z,16.13
2019-05-21T01:06:34.503Z,16.13
2019-05-21T01:09:05.856Z,16.18
2019-05-21T01:11:37.752Z,16.23
2019-05-21T01:14:10.912Z,16.07
2019-05-21T01:16:41.428Z,16.16
2019-05-21T01:19:12.920Z,16.17
2019-05-21T01:21:42.756Z,16.09
2019-05-21T01:24:12.734Z,16.11
2019-05-21T01:26:42.624Z,16.10
2019-05-21T01:29:12.674Z,16.06
2019-05-21T01:31:42.910Z,15.74
2019-05-21T01:34:14.274Z,16.13
2019-05-21T01:36:44.295Z,16.11
2019-05-21T01:39:15.050Z,16.16
2019-05-21T01:41:45.345Z,16.26
2019-05-21T01:44:15.215Z,16.23
2019-05-21T01:46:45.303Z,16.26
2019-05-21T01:49:17.413Z,16.22
2019-05-21T01:51:49.390Z,16.25
2019-05-21T01:54:22.273Z,16.19
2019-05-21T01:56:52.268Z,16.21
2019-05-21T01:59:23.382Z,16.24
2019-05-21T02:01:53.322Z,16.25
2019-05-21T02:04:23.219Z,16.24
2019-05-21T02:06:53.610Z,16.28
2019-05-21T02:09:27.917Z,16.39
2019-05-21T02:11:58.729Z,16.38
2019-05-21T02:14:29.074Z,16.40
2019-05-21T02:16:59.795Z,16.43
2019-05-21T02:19:29.636Z,16.50
2019-05-21T02:21:59.643Z,16.53
2019-05-21T02:24:29.510Z,16.41
2019-05-21T02:27:00.203Z,16.39
2019-05-21T02:29:30.134Z,16.43
2019-05-21T02:32:00.117Z,16.44
2019-05-21T02:34:30.029Z,16.50
2019-05-21T02:37:00.239Z,16.51
2019-05-21T02:39:30.153Z,16.48
2019-05-21T02:42:00.012Z,16.52
2019-05-21T02:44:29.825Z,16.57
2019-05-21T02:46:59.785Z,16.60
2019-05-21T02:49:29.647Z,16.64
2019-05-21T02:52:02.242Z,16.67
2019-05-21T02:54:40.878Z,16.68
2019-05-21T02:57:07.247Z,16.71
2019-05-21T02:59:39.799Z,16.22
2019-05-21T03:02:24.079Z,16.69
2019-05-21T03:04:54.103Z,16.73
2019-05-21T03:07:25.646Z,16.76
2019-05-21T03:09:55.843Z,16.73
2019-05-21T03:12:25.733Z,16.77
2019-05-21T03:14:55.750Z,16.81
2019-05-21T03:17:25.663Z,16.82
2019-05-21T03:19:59.438Z,16.83
2019-05-21T03:22:29.333Z,16.87
2019-05-21T03:25:02.313Z,16.86
2019-05-21T03:27:30.931Z,16.85
2019-05-21T03:30:01.468Z,16.86
2019-05-21T03:32:32.085Z,16.87
2019-05-21T03:35:01.998Z,16.90
2019-05-21T03:37:32.042Z,16.86
2019-05-21T03:40:02.189Z,16.42
2019-05-21T03:42:32.221Z,16.86
2019-05-21T03:45:07.309Z,16.86
2019-05-21T03:47:35.436Z,16.35
2019-05-21T03:50:05.825Z,16.20
2019-05-21T03:52:37.402Z,16.78
2019-05-21T03:55:08.045Z,16.79
2019-05-21T03:57:38.434Z,16.83
2019-05-21T04:00:10.737Z,16.75
2019-05-21T04:02:43.397Z,16.77
2019-05-21T04:05:14.886Z,16.74
2019-05-21T04:07:46.158Z,16.77
2019-05-21T04:10:18.026Z,16.75
2019-05-21T04:13:06.430Z,16.80
2019-05-21T04:15:45.255Z,16.83
2019-05-21T04:18:22.940Z,16.79
2019-05-21T04:20:54.374Z,16.85
2019-05-21T04:23:24.675Z,16.90
2019-05-21T04:25:54.914Z,16.97
2019-05-21T04:28:25.095Z,16.99
2019-05-21T04:30:55.123Z,16.99
2019-05-21T04:33:26.612Z,17.02
2019-05-21T04:36:02.488Z,17.12
2019-05-21T04:38:33.204Z,17.13
2019-05-21T04:41:03.654Z,17.16
2019-05-21T04:43:34.126Z,17.16
2019-05-21T04:46:04.231Z,17.13
2019-05-21T04:48:34.155Z,17.18
2019-05-21T04:51:04.897Z,17.19
2019-05-21T04:53:34.721Z,17.30
2019-05-21T04:56:05.993Z,17.36
2019-05-21T04:58:35.824Z,17.43
2019-05-21T05:01:09.604Z,17.48
2019-05-21T05:03:40.091Z,17.49
2019-05-21T05:06:10.156Z,17.47
2019-05-21T05:08:40.437Z,17.47
2019-05-21T05:11:10.630Z,17.51
2019-05-21T05:13:41.569Z,17.60
2019-05-21T05:16:11.682Z,17.73
2019-05-21T05:18:41.820Z,17.89
2019-05-21T05:21:13.630Z,18.03
2019-05-21T05:23:44.008Z,18.10
2019-05-21T05:26:20.990Z,18.18
2019-05-21T05:28:53.720Z,18.31
2019-05-21T05:31:24.440Z,18.61
2019-05-21T05:33:56.769Z,18.99
2019-05-21T05:36:26.770Z,18.98
2019-05-21T05:38:56.734Z,18.95
2019-05-21T05:41:27.090Z,18.89
2019-05-21T05:43:57.206Z,18.95
2019-05-21T05:46:27.391Z,18.88
2019-05-21T05:49:03.135Z,18.97
2019-05-21T05:51:33.075Z,18.99
2019-05-21T05:54:03.069Z,18.98
2019-05-21T05:56:33.506Z,18.98
2019-05-21T05:59:03.511Z,18.63
2019-05-21T06:01:34.605Z,18.54
2019-05-21T06:04:04.746Z,18.54
2019-05-21T06:06:35.409Z,18.58
2019-05-21T06:09:09.220Z,18.47
2019-05-21T06:11:40.618Z,18.32
2019-05-21T06:14:10.801Z,18.39
2019-05-21T06:16:40.796Z,18.45
2019-05-21T06:19:10.967Z,18.45
2019-05-21T06:21:40.904Z,18.56
2019-05-21T06:24:13.526Z,18.59
2019-05-21T06:26:42.576Z,18.79
2019-05-21T06:29:12.849Z,19.03
2019-05-21T06:31:42.812Z,19.25
2019-05-21T06:34:12.876Z,19.30
2019-05-21T06:36:42.972Z,19.16
2019-05-21T06:39:13.025Z,18.96
2019-05-21T06:41:43.009Z,19.07
2019-05-21T06:44:12.988Z,18.99
2019-05-21T06:46:42.979Z,19.02
2019-05-21T06:49:12.957Z,19.11
2019-05-21T06:51:42.978Z,19.07
2019-05-21T06:54:13.243Z,19.02
2019-05-21T06:56:43.311Z,18.89
2019-05-21T06:59:13.340Z,18.90
2019-05-21T07:01:43.281Z,19.04
2019-05-21T07:04:13.320Z,19.25
2019-05-21T07:06:44.875Z,19.39
2019-05-21T07:09:15.027Z,19.50
2019-05-21T07:11:45.132Z,19.82
2019-05-21T07:14:16.346Z,19.93
2019-05-21T07:16:46.182Z,19.86
2019-05-21T07:19:16.206Z,19.64
2019-05-21T07:21:46.166Z,19.54
2019-05-21T07:24:16.947Z,19.39
2019-05-21T07:26:46.908Z,19.44
2019-05-21T07:29:16.866Z,19.68
2019-05-21T07:31:46.860Z,19.84
2019-05-21T07:34:17.097Z,19.95
2019-05-21T07:36:46.968Z,20.06
2019-05-21T07:39:17.003Z,20.08
2019-05-21T07:41:46.986Z,19.96
2019-05-21T07:44:19.125Z,19.92
2019-05-21T07:46:49.479Z,19.92
2019-05-21T07:49:20.532Z,19.78
2019-05-21T07:51:50.492Z,19.80
2019-05-21T07:54:20.469Z,19.80
2019-05-21T07:56:50.603Z,19.69
2019-05-21T07:59:20.620Z,19.61
2019-05-21T08:01:50.640Z,19.52
2019-05-21T08:04:20.512Z,19.55
2019-05-21T08:06:50.524Z,19.70
2019-05-21T08:09:20.630Z,19.76
2019-05-21T08:11:50.784Z,19.88
2019-05-21T08:14:21.865Z,20.00
2019-05-21T08:16:51.816Z,20.10
2019-05-21T08:19:22.017Z,20.03
2019-05-21T08:21:52.148Z,20.04
2019-05-21T08:24:22.262Z,20.11
2019-05-21T08:26:52.613Z,20.07
2019-05-21T08:29:23.598Z,20.04
2019-05-21T08:31:54.875Z,20.10
2019-05-21T08:34:25.306Z,20.00
2019-05-21T08:36:55.465Z,20.00
2019-05-21T08:39:28.655Z,20.03
2019-05-21T08:41:57.610Z,19.97
2019-05-21T08:44:27.971Z,19.98
2019-05-21T08:47:03.634Z,19.96
2019-05-21T08:49:34.613Z,20.07
2019-05-21T08:52:04.719Z,20.23
2019-05-21T08:54:50.724Z,20.52
2019-05-21T08:57:22.008Z,20.71
2019-05-21T08:59:52.152Z,20.89
2019-05-21T09:02:26.020Z,21.14
2019-05-21T09:04:56.090Z,21.61
2019-05-21T09:07:26.273Z,21.95
2019-05-21T09:10:00.820Z,22.31
2019-05-21T09:12:30.814Z,22.48
2019-05-21T09:15:04.085Z,22.56
2019-05-21T09:17:34.261Z,22.60
2019-05-21T09:20:06.898Z,22.75
2019-05-21T09:22:37.980Z,22.61
2019-05-21T09:25:08.299Z,22.54
2019-05-21T09:27:40.049Z,22.52
2019-05-21T09:30:11.369Z,22.49
2019-05-21T09:32:45.155Z,22.60
2019-05-21T09:35:15.342Z,22.66
2019-05-21T09:37:45.384Z,22.40
2019-05-21T09:40:15.789Z,22.17
2019-05-21T09:42:46.180Z,22.16
2019-05-21T09:45:18.198Z,22.36
2019-05-21T09:47:46.227Z,22.61
2019-05-21T09:50:16.338Z,22.68
2019-05-21T09:52:46.318Z,22.87
2019-05-21T09:55:17.126Z,23.03
2019-05-21T09:58:12.456Z,23.19
2019-05-21T10:01:08.429Z,23.34
2019-05-21T10:03:42.704Z,23.41
2019-05-21T10:06:14.129Z,23.44
2019-05-21T10:08:46.022Z,23.69
2019-05-21T10:11:16.741Z,23.98
2019-05-21T10:13:47.013Z,24.22
2019-05-21T10:16:17.953Z,24.44
2019-05-21T10:18:48.900Z,24.39
2019-05-21T10:21:26.589Z,24.29
2019-05-21T10:23:58.225Z,24.24
2019-05-21T10:26:31.136Z,24.47
2019-05-21T10:29:01.515Z,24.60
2019-05-21T10:31:33.411Z,24.98
2019-05-21T10:34:04.576Z,25.37
2019-05-21T10:36:35.467Z,25.57
2019-05-21T10:39:07.588Z,25.82
2019-05-21T10:41:38.009Z,25.82
2019-05-21T10:44:09.164Z,25.73
2019-05-21T10:46:39.869Z,25.64
2019-05-21T10:49:11.121Z,25.58
2019-05-21T10:51:41.848Z,25.44
2019-05-21T10:54:12.562Z,25.06
2019-05-21T10:56:47.777Z,24.82
2019-05-21T10:59:17.326Z,24.86
2019-05-21T11:02:13.187Z,25.50
2019-05-21T11:04:48.469Z,25.78
2019-05-21T11:07:21.967Z,25.95
2019-05-21T11:09:52.422Z,25.51
2019-05-21T11:12:23.403Z,24.97
2019-05-21T11:14:54.271Z,24.36
2019-05-21T11:17:25.523Z,24.42
2019-05-21T11:19:56.603Z,24.65
2019-05-21T11:22:27.859Z,25.15
2019-05-21T11:24:59.546Z,25.61
2019-05-21T11:27:31.703Z,25.74
2019-05-21T11:30:02.771Z,25.51
2019-05-21T11:32:35.043Z,25.29
2019-05-21T11:35:07.033Z,24.72
2019-05-21T11:37:37.349Z,24.51
2019-05-21T11:40:08.733Z,24.31
2019-05-21T11:42:39.395Z,24.32
2019-05-21T11:45:10.719Z,24.27
2019-05-21T11:47:41.187Z,24.33
2019-05-21T11:50:11.821Z,24.51
2019-05-21T11:52:41.813Z,24.67
2019-05-21T11:55:11.907Z,24.68
2019-05-21T11:57:42.310Z,24.73
2019-05-21T12:00:13.106Z,24.78
2019-05-21T12:02:43.151Z,24.75
2019-05-21T12:05:13.286Z,24.78
2019-05-21T12:07:43.721Z,24.89
2019-05-21T12:10:13.952Z,25.02
2019-05-21T12:12:44.175Z,25.12
2019-05-21T12:15:14.847Z,25.31
2019-05-21T12:17:45.871Z,25.72
2019-05-21T12:20:35.287Z,26.16
2019-05-21T12:22:50.837Z,26.52
2019-05-21T12:25:21.341Z,26.74
2019-05-21T12:27:51.841Z,26.50
2019-05-21T12:30:22.431Z,26.59
2019-05-21T12:32:52.582Z,26.56
2019-05-21T12:35:22.879Z,26.26
2019-05-21T12:37:53.707Z,26.15
2019-05-21T12:40:23.927Z,26.15
2019-05-21T12:42:54.823Z,26.11
2019-05-21T12:45:24.884Z,25.97
2019-05-21T12:47:55.011Z,26.06
2019-05-21T12:50:29.244Z,26.00
2019-05-21T12:52:59.255Z,25.88
2019-05-21T12:55:29.452Z,25.77
2019-05-21T12:57:59.615Z,25.60
2019-05-21T13:00:34.338Z,25.42
2019-05-21T13:03:04.454Z,25.34
2019-05-21T13:05:34.498Z,25.10
2019-05-21T13:08:06.262Z,24.96
2019-05-21T13:10:38.712Z,24.69
2019-05-21T13:13:09.223Z,23.42
2019-05-21T13:15:40.356Z,22.92
2019-05-21T13:18:12.286Z,21.88
2019-05-21T13:20:45.203Z,21.54
2019-05-21T13:23:18.050Z,21.42
2019-05-21T13:25:51.363Z,21.46
2019-05-21T13:28:22.066Z,21.48
2019-05-21T13:30:54.367Z,21.26
2019-05-21T13:33:29.789Z,21.06
2019-05-21T13:36:04.777Z,20.68
2019-05-21T13:38:38.273Z,20.04
2019-05-21T13:43:41.877Z,19.74
2019-05-21T13:46:17.671Z,19.64
2019-05-21T13:48:50.813Z,19.35
2019-05-21T13:51:24.071Z,19.08
2019-05-21T13:53:59.607Z,18.94
2019-05-21T13:56:32.919Z,18.92
2019-05-21T13:59:10.040Z,18.91
2019-05-21T14:01:44.172Z,18.77
2019-05-21T14:04:15.381Z,18.69
2019-05-21T14:06:45.480Z,18.88
2019-05-21T14:09:22.883Z,19.07
2019-05-21T14:11:56.240Z,19.15
2019-05-21T14:14:26.934Z,19.12
2019-05-21T14:16:58.091Z,19.21
2019-05-21T14:19:31.231Z,19.28
2019-05-21T14:22:01.791Z,19.33
2019-05-21T14:24:32.553Z,19.55
2019-05-21T14:27:02.914Z,19.82
2019-05-21T14:29:33.226Z,20.05
2019-05-21T14:32:03.987Z,20.12
2019-05-21T14:34:35.412Z,20.12
2019-05-21T14:37:06.931Z,20.34
2019-05-21T14:39:37.621Z,20.64
2019-05-21T14:42:07.801Z,21.07
2019-05-21T14:44:38.834Z,20.84
2019-05-21T14:47:09.709Z,20.69
2019-05-21T14:49:45.744Z,20.55
2019-05-21T14:52:16.293Z,20.22
2019-05-21T14:54:47.298Z,19.65
2019-05-21T14:57:17.756Z,19.32
2019-05-21T14:59:48.308Z,19.07
2019-05-21T15:02:19.817Z,18.93
2019-05-21T15:04:50.470Z,18.74
2019-05-21T15:07:20.907Z,18.71
2019-05-21T15:09:53.380Z,18.72
2019-05-21T15:12:24.380Z,18.78
2019-05-21T15:14:54.823Z,18.61
2019-05-21T15:17:25.182Z,18.69
2019-05-21T15:19:57.231Z,18.69
2019-05-21T15:22:27.833Z,18.78
2019-05-21T15:25:01.067Z,18.74
2019-05-21T15:27:33.692Z,18.14
2019-05-21T15:30:05.267Z,18.70
2019-05-21T15:32:35.361Z,18.80
2019-05-21T15:35:05.964Z,18.64
2019-05-21T15:37:36.531Z,18.80
2019-05-21T15:40:09.001Z,18.94
2019-05-21T15:42:39.555Z,18.98
2019-05-21T15:45:10.238Z,19.06
2019-05-21T15:47:41.268Z,18.91
2019-05-21T15:50:12.054Z,18.84
2019-05-21T15:52:42.637Z,18.74
2019-05-21T15:55:12.939Z,18.75
2019-05-21T15:57:43.852Z,18.85
2019-05-21T16:00:16.559Z,18.86
2019-05-21T16:02:46.626Z,19.05
2019-05-21T16:05:22.018Z,19.13
2019-05-21T16:07:52.455Z,19.20
2019-05-21T16:10:23.178Z,19.40
2019-05-21T16:12:54.466Z,19.55
2019-05-21T16:15:24.925Z,19.75
2019-05-21T16:17:56.142Z,19.85
2019-05-21T16:20:26.708Z,19.79
2019-05-21T16:22:56.953Z,19.72
2019-05-21T16:25:27.302Z,19.84
2019-05-21T16:27:57.599Z,19.79
2019-05-21T16:30:27.602Z,19.73
2019-05-21T16:32:58.183Z,19.82
2019-05-21T16:35:29.466Z,19.72
2019-05-21T16:38:00.574Z,19.41
2019-05-21T16:40:35.427Z,19.40
2019-05-21T16:43:05.940Z,19.42
2019-05-21T16:45:37.317Z,19.30
2019-05-21T16:48:08.258Z,19.31
2019-05-21T16:50:38.835Z,19.34
2019-05-21T16:53:09.729Z,19.08
2019-05-21T16:55:40.196Z,18.98
2019-05-21T16:58:11.101Z,18.95
2019-05-21T17:00:44.848Z,18.85
2019-05-21T17:03:15.263Z,18.53
2019-05-21T17:05:46.127Z,18.34
2019-05-21T17:08:16.544Z,18.12
2019-05-21T17:10:47.117Z,18.11
2019-05-21T17:13:20.833Z,18.17
2019-05-21T17:15:52.068Z,18.10
2019-05-21T17:18:23.416Z,18.06
2019-05-21T17:20:53.457Z,17.92
2019-05-21T17:23:23.493Z,17.89
2019-05-21T17:25:53.556Z,17.89
2019-05-21T17:28:23.722Z,17.68
2019-05-21T17:30:53.915Z,17.74
2019-05-21T17:33:23.962Z,17.69
2019-05-21T17:35:54.062Z,17.58
2019-05-21T17:38:25.256Z,17.63
2019-05-21T17:40:56.030Z,17.69
2019-05-21T17:43:29.194Z,17.59
2019-05-21T17:46:02.115Z,17.47
2019-05-21T17:48:32.838Z,16.74
2019-05-21T17:51:03.473Z,17.14
2019-05-21T17:53:35.111Z,17.08
2019-05-21T17:56:06.404Z,17.12
2019-05-21T17:58:36.471Z,17.12
2019-05-21T18:01:09.166Z,16.94
2019-05-21T18:03:39.158Z,16.92
2019-05-21T18:06:10.420Z,16.94
2019-05-21T18:08:40.656Z,17.04
2019-05-21T18:11:11.775Z,17.03
2019-05-21T18:13:42.725Z,16.85
2019-05-21T18:16:16.452Z,16.90
2019-05-21T18:18:50.231Z,16.93
2019-05-21T18:21:24.731Z,16.91
2019-05-21T18:23:54.927Z,16.76
2019-05-21T18:26:26.820Z,16.68
2019-05-21T18:28:59.441Z,16.71
2019-05-21T18:31:30.847Z,16.55
2019-05-21T18:34:01.031Z,16.52
2019-05-21T18:36:31.185Z,16.62
2019-05-21T18:39:01.248Z,16.65
2019-05-21T18:41:31.321Z,16.77
2019-05-21T18:44:01.592Z,16.75
2019-05-21T18:46:32.020Z,16.68
2019-05-21T18:49:02.751Z,16.62
2019-05-21T18:51:32.842Z,16.55
2019-05-21T18:54:03.011Z,16.48
2019-05-21T18:56:33.001Z,16.27
2019-05-21T18:59:03.203Z,16.52
2019-05-21T19:01:33.384Z,16.45
2019-05-21T19:04:07.500Z,16.54
2019-05-21T19:06:40.357Z,16.51
2019-05-21T19:09:10.545Z,16.59
2019-05-21T19:11:41.779Z,16.57
2019-05-21T19:14:12.858Z,16.55
2019-05-21T19:16:43.986Z,16.57
2019-05-21T19:19:18.358Z,16.51
2019-05-21T19:21:48.440Z,16.59
2019-05-21T19:24:18.418Z,16.57
2019-05-21T19:26:53.382Z,16.43
2019-05-21T19:31:57.408Z,16.55
2019-05-21T19:34:27.914Z,16.54
2019-05-21T19:36:59.644Z,16.59
2019-05-21T19:39:32.024Z,16.44
2019-05-21T19:42:02.144Z,16.45
2019-05-21T19:44:36.362Z,16.34
2019-05-21T19:47:07.244Z,16.38
2019-05-21T19:49:38.616Z,16.40
2019-05-21T19:52:08.703Z,16.40
2019-05-21T19:54:39.969Z,16.28
2019-05-21T19:57:11.088Z,16.29
2019-05-21T19:59:41.328Z,16.23
2019-05-21T20:02:12.135Z,16.16
2019-05-21T20:04:43.123Z,16.20
2019-05-21T20:07:15.277Z,16.26
2019-05-21T20:09:46.499Z,16.24
2019-05-21T20:12:16.723Z,16.40
2019-05-21T20:14:47.294Z,16.43
2019-05-21T20:17:18.243Z,16.33
2019-05-21T20:19:50.097Z,16.40
2019-05-21T20:22:20.376Z,16.33
2019-05-21T20:24:51.005Z,16.50
2019-05-21T20:27:21.002Z,16.57
2019-05-21T20:29:51.446Z,16.50
2019-05-21T20:32:23.349Z,16.33
2019-05-21T20:34:53.941Z,16.41
2019-05-21T20:37:29.901Z,16.44
2019-05-21T20:40:01.177Z,16.39
2019-05-21T20:42:32.980Z,16.37
2019-05-21T20:45:04.004Z,16.48
2019-05-21T20:47:34.372Z,16.47
2019-05-21T20:50:07.223Z,16.33
2019-05-21T20:52:37.576Z,16.36
2019-05-21T20:55:09.434Z,16.45
2019-05-21T20:57:39.898Z,16.37
2019-05-21T21:00:11.232Z,16.44
2019-05-21T21:02:41.981Z,16.36
2019-05-21T21:05:13.299Z,16.32
2019-05-21T21:07:44.309Z,16.49
2019-05-21T21:10:14.625Z,16.34
2019-05-21T21:12:46.879Z,16.35
2019-05-21T21:15:18.697Z,16.39
2019-05-21T21:17:48.770Z,16.34
2019-05-21T21:20:19.266Z,16.26
2019-05-21T21:22:49.650Z,16.42
2019-05-21T21:25:25.407Z,16.42
2019-05-21T21:27:55.656Z,15.88
2019-05-21T21:30:27.668Z,16.33
2019-05-21T21:32:58.138Z,16.26
2019-05-21T21:35:28.550Z,16.25
2019-05-21T21:38:00.149Z,16.26
2019-05-21T21:40:30.492Z,16.18
2019-05-21T21:43:01.236Z,16.26
2019-05-21T21:45:32.402Z,16.33
2019-05-21T21:48:02.953Z,16.26
2019-05-21T21:50:33.986Z,16.25
2019-05-21T21:53:04.335Z,16.30
2019-05-21T21:55:34.578Z,16.31
2019-05-21T21:58:04.823Z,16.18
2019-05-21T22:01:35.049Z,16.22
2019-05-21T22:04:11.214Z,16.28
2019-05-21T22:06:43.923Z,16.25
2019-05-21T22:09:19.189Z,16.30
2019-05-21T22:11:50.035Z,16.24
2019-05-21T22:14:20.212Z,16.33
2019-05-21T22:16:51.919Z,16.41
2019-05-21T22:19:23.680Z,16.50
2019-05-21T22:21:54.005Z,16.45
2019-05-21T22:24:24.936Z,16.37
2019-05-21T22:26:57.012Z,16.34
2019-05-21T22:29:27.377Z,16.36
2019-05-21T22:34:26.813Z,16.32
2019-05-21T22:36:59.989Z,16.46
2019-05-21T22:39:32.483Z,16.46
2019-05-21T22:42:02.860Z,16.30
2019-05-21T22:44:34.502Z,16.20
2019-05-21T22:47:05.487Z,16.19
2019-05-21T22:49:36.724Z,16.17
2019-05-21T22:52:06.902Z,16.16
2019-05-21T22:54:36.901Z,16.24
2019-05-21T22:57:07.260Z,16.32
2019-05-21T22:59:37.595Z,16.17
2019-05-21T23:02:10.682Z,16.23
2019-05-21T23:04:40.631Z,16.22
2019-05-21T23:07:10.807Z,16.23
2019-05-21T23:09:40.927Z,16.14
2019-05-21T23:12:11.171Z,16.18
2019-05-21T23:14:41.270Z,16.23
2019-05-21T23:17:11.216Z,16.24
2019-05-21T23:19:42.709Z,16.27
2019-05-21T23:22:16.430Z,16.27
2019-05-21T23:24:48.267Z,16.25
2019-05-21T23:27:19.614Z,16.34
2019-05-21T23:29:50.096Z,16.32
2019-05-21T23:32:20.941Z,16.26
2019-05-21T23:34:51.098Z,16.23
2019-05-21T23:37:24.149Z,16.28
2019-05-21T23:39:55.889Z,16.33
2019-05-21T23:42:29.753Z,16.39
2019-05-21T23:45:02.179Z,16.33
2019-05-21T23:47:32.802Z,16.34
2019-05-21T23:50:03.113Z,16.17
2019-05-21T23:52:35.288Z,16.23
2019-05-21T23:55:05.418Z,16.24
2019-05-21T23:57:37.608Z,16.26
